Time;durP1;ratioP1;P1;durP2;ratioP2;P2;SDS_P1;SDS_P2;PMS_P1;PMS_P2;Temp;Humidity;BMP_temperature;BMP_pressure;BME280_temperature;BME280_humidity;BME280_pressure;Samples;Min_cycle;Max_cycle;Signal;HPM_P1;HPM_P2
2021/10/04 00:00:41;;;;;;;;;;;13.30;95.90;;;;;;4331044;33;44041;-79
2021/10/04 00:03:11;;;;;;;;;;;13.30;95.90;;;;;;4330101;33;43224;-79
2021/10/04 00:05:41;;;;;;;;;;;13.30;95.90;;;;;;4330723;33;45014;-79
2021/10/04 00:08:11;;;;;;;;;;;13.40;95.90;;;;;;4330000;33;43583;-80
2021/10/04 00:10:41;;;;;;;;;;;13.30;95.90;;;;;;4331508;33;44255;-79
2021/10/04 00:13:08;;;;;;;;;;;13.40;95.90;;;;;;4325607;33;43477;-79
2021/10/04 00:15:38;;;;;;;;;;;13.30;95.90;;;;;;4330090;33;44271;-79
2021/10/04 00:18:05;;;;;;;;;;;13.40;95.90;;;;;;4331437;33;43808;-81
2021/10/04 00:20:35;;;;;;;;;;;13.30;95.90;;;;;;4319268;33;20419;-79
2021/10/04 00:23:02;;;;;;;;;;;13.30;95.90;;;;;;4329763;33;44504;-80
2021/10/04 00:25:29;;;;;;;;;;;13.40;95.90;;;;;;4330849;33;43471;-79
2021/10/04 00:28:01;;;;;;;;;;;13.30;95.90;;;;;;4329769;33;43706;-79
2021/10/04 00:30:29;;;;;;;;;;;13.30;95.80;;;;;;4330747;33;32382;-79
2021/10/04 00:32:57;;;;;;;;;;;13.40;95.90;;;;;;4331216;33;44179;-79
2021/10/04 00:35:25;;;;;;;;;;;13.40;95.80;;;;;;4331239;33;44323;-79
2021/10/04 00:37:55;;;;;;;;;;;13.30;95.80;;;;;;4331328;33;44353;-79
2021/10/04 00:40:30;;;;;;;;;;;13.30;95.90;;;;;;4330084;33;42956;-79
2021/10/04 00:42:58;;;;;;;;;;;13.30;95.80;;;;;;4330004;33;45009;-79
2021/10/04 00:45:26;;;;;;;;;;;13.30;95.80;;;;;;4317938;33;45891;-80
2021/10/04 00:47:53;;;;;;;;;;;13.30;95.80;;;;;;4331070;33;43825;-79
2021/10/04 00:50:22;;;;;;;;;;;13.40;95.90;;;;;;4330472;33;46053;-79
2021/10/04 00:52:55;;;;;;;;;;;13.40;95.90;;;;;;4329954;33;43581;-79
2021/10/04 00:55:27;;;;;;;;;;;13.40;95.80;;;;;;4329413;33;42854;-79
2021/10/04 00:57:58;;;;;;;;;;;13.40;95.80;;;;;;4318314;33;43840;-79
2021/10/04 01:00:26;;;;;;;;;;;13.40;95.80;;;;;;4329283;33;42803;-79
2021/10/04 01:02:53;;;;;;;;;;;13.40;95.90;;;;;;4330312;33;43820;-80
2021/10/04 01:05:24;;;;;;;;;;;13.40;95.80;;;;;;4330320;33;44214;-79
2021/10/04 01:07:51;;;;;;;;;;;13.40;95.80;;;;;;4330353;33;42281;-80
2021/10/04 01:10:22;;;;;;;;;;;13.40;95.80;;;;;;4329233;33;42828;-80
2021/10/04 01:12:52;;;;;;;;;;;13.40;95.80;;;;;;4317325;33;43087;-80
2021/10/04 01:15:23;;;;;;;;;;;13.40;95.80;;;;;;4317085;33;43189;-79
2021/10/04 01:17:53;;;;;;;;;;;13.40;95.80;;;;;;4329649;33;44417;-80
2021/10/04 01:20:22;;;;;;;;;;;13.40;95.80;;;;;;4330755;33;43873;-79
2021/10/04 01:22:49;;;;;;;;;;;13.40;95.80;;;;;;4330778;33;43740;-79
2021/10/04 01:25:20;;;;;;;;;;;13.30;95.80;;;;;;4329457;33;44912;-79
2021/10/04 01:27:58;;;;;;;;;;;13.30;95.90;;;;;;4330489;33;42688;-79
2021/10/04 01:30:26;;;;;;;;;;;13.30;96.20;;;;;;4317416;33;44862;-80
2021/10/04 01:32:58;;;;;;;;;;;13.30;95.90;;;;;;4330063;33;44199;-79
2021/10/04 01:35:31;;;;;;;;;;;13.30;95.90;;;;;;4330658;33;42906;-80
2021/10/04 01:38:00;;;;;;;;;;;13.30;95.90;;;;;;4330341;33;42455;-79
2021/10/04 01:40:28;;;;;;;;;;;13.30;95.90;;;;;;4328875;33;42136;-79
2021/10/04 01:42:57;;;;;;;;;;;13.30;95.90;;;;;;4330493;33;43202;-79
2021/10/04 01:45:28;;;;;;;;;;;13.30;95.90;;;;;;4330247;33;42671;-79
2021/10/04 01:47:59;;;;;;;;;;;13.30;95.90;;;;;;4330656;33;43113;-79
2021/10/04 01:50:36;;;;;;;;;;;13.30;95.90;;;;;;4329462;33;43861;-80
2021/10/04 01:53:09;;;;;;;;;;;13.30;95.90;;;;;;4331099;33;20001;-79
2021/10/04 01:55:36;;;;;;;;;;;13.30;95.90;;;;;;4329362;33;43561;-80
2021/10/04 01:58:07;;;;;;;;;;;13.20;95.90;;;;;;4330469;33;43880;-80
2021/10/04 02:00:40;;;;;;;;;;;13.30;95.90;;;;;;4330189;33;43317;-79
2021/10/04 02:03:07;;;;;;;;;;;13.30;96.00;;;;;;4329954;33;43760;-80
2021/10/04 02:05:35;;;;;;;;;;;13.20;95.90;;;;;;4317170;33;42579;-79
2021/10/04 02:08:05;;;;;;;;;;;13.30;95.90;;;;;;4329265;33;43279;-80
2021/10/04 02:10:36;;;;;;;;;;;13.30;95.90;;;;;;4330881;33;44209;-79
2021/10/04 02:13:05;;;;;;;;;;;13.30;95.90;;;;;;4333365;33;43998;-79
2021/10/04 02:15:32;;;;;;;;;;;13.30;95.90;;;;;;4331939;33;43198;-79
2021/10/04 02:18:09;;;;;;;;;;;13.20;95.90;;;;;;4331701;33;42886;-79
2021/10/04 02:20:43;;;;;;;;;;;13.20;95.90;;;;;;4333057;33;45815;-79
2021/10/04 02:23:12;;;;;;;;;;;13.20;95.90;;;;;;4333319;33;20009;-79
2021/10/04 02:25:47;;;;;;;;;;;13.20;95.90;;;;;;4332550;33;43464;-79
2021/10/04 02:28:17;;;;;;;;;;;13.20;95.90;;;;;;4319436;33;42922;-79
2021/10/04 02:30:45;;;;;;;;;;;13.20;95.90;;;;;;4332897;33;43504;-80
2021/10/04 02:33:12;;;;;;;;;;;13.20;96.00;;;;;;4332904;33;44983;-79
2021/10/04 02:35:48;;;;;;;;;;;13.20;96.00;;;;;;4331518;33;42151;-80
2021/10/04 02:38:17;;;;;;;;;;;13.20;96.00;;;;;;4332966;33;45728;-79
2021/10/04 02:40:46;;;;;;;;;;;13.20;96.00;;;;;;4331256;33;43671;-79
2021/10/04 02:43:18;;;;;;;;;;;13.20;96.00;;;;;;4332717;33;44331;-80
2021/10/04 02:45:47;;;;;;;;;;;13.20;95.90;;;;;;4332685;33;44334;-79
2021/10/04 02:48:15;;;;;;;;;;;13.20;95.90;;;;;;4332245;33;43551;-80
2021/10/04 02:50:42;;;;;;;;;;;13.10;95.90;;;;;;4331065;33;44383;-79
2021/10/04 02:53:12;;;;;;;;;;;13.20;96.00;;;;;;4331602;33;43043;-79
2021/10/04 02:55:42;;;;;;;;;;;13.10;96.00;;;;;;4319630;33;42458;-79
2021/10/04 02:58:17;;;;;;;;;;;13.10;96.00;;;;;;4332094;33;42529;-79
2021/10/04 03:00:44;;;;;;;;;;;13.10;96.00;;;;;;4319073;33;42152;-80
2021/10/04 03:03:17;;;;;;;;;;;13.10;96.00;;;;;;4332036;33;43860;-79
2021/10/04 03:05:44;;;;;;;;;;;13.10;96.00;;;;;;4331416;33;43585;-79
2021/10/04 03:08:11;;;;;;;;;;;13.10;96.00;;;;;;4319322;33;44863;-80
2021/10/04 03:10:39;;;;;;;;;;;13.10;96.00;;;;;;4331876;33;44728;-80
2021/10/04 03:13:06;;;;;;;;;;;13.10;96.00;;;;;;4332204;33;44921;-79
2021/10/04 03:15:39;;;;;;;;;;;13.10;96.00;;;;;;4331831;33;42509;-80
2021/10/04 03:18:06;;;;;;;;;;;13.10;96.00;;;;;;4331444;33;43017;-80
2021/10/04 03:20:37;;;;;;;;;;;13.10;96.00;;;;;;4331605;33;44719;-79
2021/10/04 03:23:05;;;;;;;;;;;13.10;96.00;;;;;;4330733;33;43010;-79
2021/10/04 03:25:32;;;;;;;;;;;13.10;96.00;;;;;;4332134;33;43564;-79
2021/10/04 03:28:02;;;;;;;;;;;13.10;96.00;;;;;;4330687;33;43017;-78
2021/10/04 03:30:33;;;;;;;;;;;13.10;96.00;;;;;;4332019;33;42883;-79
2021/10/04 03:33:03;;;;;;;;;;;13.10;96.00;;;;;;4332260;33;43104;-80
2021/10/04 03:35:36;;;;;;;;;;;13.10;96.00;;;;;;4332093;33;43178;-80
2021/10/04 03:38:08;;;;;;;;;;;13.00;95.90;;;;;;4332065;33;43071;-80
2021/10/04 03:40:35;;;;;;;;;;;13.00;95.90;;;;;;4318821;33;43936;-80
2021/10/04 03:43:08;;;;;;;;;;;13.10;95.90;;;;;;4330413;33;42698;-79
2021/10/04 03:45:35;;;;;;;;;;;13.10;96.00;;;;;;4332032;33;43556;-79
2021/10/04 03:48:02;;;;;;;;;;;13.10;95.90;;;;;;4331880;33;42781;-80
2021/10/04 03:50:35;;;;;;;;;;;13.10;95.90;;;;;;4318211;33;44268;-79
2021/10/04 03:53:02;;;;;;;;;;;13.10;95.90;;;;;;4331050;33;43011;-79
2021/10/04 03:55:29;;;;;;;;;;;13.10;95.90;;;;;;4331994;33;43711;-79
2021/10/04 03:58:02;;;;;;;;;;;13.10;95.90;;;;;;4330711;33;45897;-80
2021/10/04 04:00:32;;;;;;;;;;;13.10;95.90;;;;;;4331660;33;46007;-80
2021/10/04 04:03:00;;;;;;;;;;;13.10;95.80;;;;;;4329956;33;42618;-80
2021/10/04 04:05:31;;;;;;;;;;;13.10;95.80;;;;;;4330105;33;42779;-79
2021/10/04 04:08:01;;;;;;;;;;;13.10;95.80;;;;;;4331415;33;43960;-80
2021/10/04 04:10:30;;;;;;;;;;;13.10;95.90;;;;;;4318528;33;43482;-80
2021/10/04 04:13:00;;;;;;;;;;;13.10;95.80;;;;;;4331627;33;42890;-80
2021/10/04 04:15:27;;;;;;;;;;;13.10;95.80;;;;;;4331333;33;44348;-79
2021/10/04 04:17:57;;;;;;;;;;;13.10;95.80;;;;;;4318133;33;42100;-80
2021/10/04 04:20:24;;;;;;;;;;;13.10;95.80;;;;;;4318261;33;42379;-79
2021/10/04 04:22:51;;;;;;;;;;;13.10;95.80;;;;;;4331056;33;43429;-79
2021/10/04 04:25:22;;;;;;;;;;;13.00;95.80;;;;;;4331189;33;20477;-80
2021/10/04 04:27:49;;;;;;;;;;;13.10;95.80;;;;;;4331316;33;43478;-79
2021/10/04 04:30:20;;;;;;;;;;;13.10;95.80;;;;;;4331236;33;42874;-79
2021/10/04 04:32:52;;;;;;;;;;;13.00;95.80;;;;;;4317846;33;43986;-79
2021/10/04 04:35:22;;;;;;;;;;;13.00;95.80;;;;;;4330739;33;44302;-80
2021/10/04 04:37:49;;;;;;;;;;;13.00;95.80;;;;;;4331056;33;42852;-80
2021/10/04 04:40:19;;;;;;;;;;;13.00;95.80;;;;;;4329746;33;43486;-80
2021/10/04 04:42:46;;;;;;;;;;;13.00;95.80;;;;;;4317913;33;44072;-79
2021/10/04 04:45:20;;;;;;;;;;;13.00;95.80;;;;;;4329915;33;46072;-80
2021/10/04 04:47:53;;;;;;;;;;;13.00;95.80;;;;;;4330079;33;43249;-80
2021/10/04 04:50:23;;;;;;;;;;;13.00;95.80;;;;;;4330113;33;44241;-79
2021/10/04 04:52:53;;;;;;;;;;;13.00;95.80;;;;;;4329978;33;44883;-80
2021/10/04 04:55:23;;;;;;;;;;;13.00;95.80;;;;;;4330497;33;42185;-79
2021/10/04 04:57:53;;;;;;;;;;;13.00;95.80;;;;;;4329797;33;44209;-80
2021/10/04 05:00:25;;;;;;;;;;;13.00;95.80;;;;;;4330576;33;42146;-80
2021/10/04 05:02:55;;;;;;;;;;;13.00;95.80;;;;;;4329291;33;43744;-80
2021/10/04 05:05:23;;;;;;;;;;;13.00;95.80;;;;;;4330765;33;44168;-79
2021/10/04 05:07:53;;;;;;;;;;;13.00;95.80;;;;;;4330371;33;43574;-79
2021/10/04 05:10:22;;;;;;;;;;;13.00;95.80;;;;;;4329315;33;43322;-79
2021/10/04 05:12:52;;;;;;;;;;;13.00;95.80;;;;;;4330765;33;43909;-79
2021/10/04 05:15:19;;;;;;;;;;;13.00;95.80;;;;;;4330662;33;42209;-79
2021/10/04 05:17:54;;;;;;;;;;;13.00;95.80;;;;;;4330730;33;44684;-80
2021/10/04 05:20:21;;;;;;;;;;;13.00;95.80;;;;;;4330749;33;43463;-81
2021/10/04 05:22:54;;;;;;;;;;;13.00;95.80;;;;;;4328975;33;43574;-79
2021/10/04 05:25:21;;;;;;;;;;;13.00;95.80;;;;;;4330186;33;42868;-80
2021/10/04 05:27:48;;;;;;;;;;;13.00;95.80;;;;;;4317390;33;44316;-79
2021/10/04 05:30:17;;;;;;;;;;;13.00;95.70;;;;;;4329048;33;45766;-79
2021/10/04 05:32:48;;;;;;;;;;;13.00;95.70;;;;;;4330433;33;43361;-80
2021/10/04 05:35:17;;;;;;;;;;;12.90;95.70;;;;;;4329429;33;42889;-79
2021/10/04 05:37:50;;;;;;;;;;;12.90;95.80;;;;;;4329495;33;43068;-79
2021/10/04 05:40:22;;;;;;;;;;;12.90;95.70;;;;;;4330667;33;43023;-80
2021/10/04 05:42:52;;;;;;;;;;;13.00;95.80;;;;;;4330594;33;44050;-80
2021/10/04 05:45:22;;;;;;;;;;;12.90;95.70;;;;;;4330758;33;44511;-79
2021/10/04 05:47:57;;;;;;;;;;;12.90;95.70;;;;;;4332533;33;45858;-79
2021/10/04 05:50:30;;;;;;;;;;;12.90;95.70;;;;;;4333726;33;45211;-79
2021/10/04 05:53:02;;;;;;;;;;;12.90;95.80;;;;;;4333103;33;44372;-79
2021/10/04 05:55:32;;;;;;;;;;;12.90;95.80;;;;;;4320375;33;45770;-79
2021/10/04 05:58:02;;;;;;;;;;;12.90;95.80;;;;;;4333143;33;20001;-79
2021/10/04 06:00:30;;;;;;;;;;;12.90;95.80;;;;;;4332018;33;44177;-79
2021/10/04 06:02:59;;;;;;;;;;;12.90;95.80;;;;;;4331771;33;43176;-79
2021/10/04 06:05:27;;;;;;;;;;;12.90;95.80;;;;;;4331961;33;44882;-79
2021/10/04 06:08:02;;;;;;;;;;;12.90;95.80;;;;;;4331654;33;45188;-79
2021/10/04 06:10:35;;;;;;;;;;;12.90;95.80;;;;;;4320137;33;45058;-79
2021/10/04 06:13:05;;;;;;;;;;;12.90;95.80;;;;;;4332375;33;44781;-80
2021/10/04 06:15:35;;;;;;;;;;;12.90;95.80;;;;;;4320019;33;44206;-79
2021/10/04 06:18:03;;;;;;;;;;;12.90;95.80;;;;;;4331912;33;44825;-80
2021/10/04 06:20:32;;;;;;;;;;;12.90;95.80;;;;;;4332117;33;43194;-79
2021/10/04 06:23:02;;;;;;;;;;;12.90;95.80;;;;;;4331956;33;43697;-79
2021/10/04 06:25:38;;;;;;;;;;;12.90;96.10;;;;;;4332124;33;43688;-79
2021/10/04 06:28:06;;;;;;;;;;;12.90;95.70;;;;;;4332622;33;20037;-80
2021/10/04 06:30:38;;;;;;;;;;;12.90;95.70;;;;;;4331442;33;44316;-79
2021/10/04 06:33:09;;;;;;;;;;;12.90;95.70;;;;;;4331973;33;44228;-79
2021/10/04 06:35:36;;;;;;;;;;;12.90;95.70;;;;;;4331828;33;44841;-80
2021/10/04 06:38:07;;;;;;;;;;;12.90;95.80;;;;;;4331347;33;43595;-79
2021/10/04 06:40:34;;;;;;;;;;;12.90;95.70;;;;;;4332961;33;45787;-79
2021/10/04 06:43:04;;;;;;;;;;;12.80;95.70;;;;;;4332396;33;43248;-80
2021/10/04 06:45:34;;;;;;;;;;;12.90;95.70;;;;;;4331606;33;43739;-80
2021/10/04 06:48:04;;;;;;;;;;;12.90;95.70;;;;;;4332284;33;43490;-79
2021/10/04 06:50:32;;;;;;;;;;;12.90;95.70;;;;;;4331653;33;44370;-79
2021/10/04 06:53:02;;;;;;;;;;;12.90;95.70;;;;;;4331635;33;44772;-79
2021/10/04 06:55:30;;;;;;;;;;;12.90;95.70;;;;;;4319248;33;45756;-80
2021/10/04 06:57:57;;;;;;;;;;;12.90;95.70;;;;;;4330857;33;45762;-79
2021/10/04 07:00:31;;;;;;;;;;;12.90;95.70;;;;;;4318988;33;44178;-80
2021/10/04 07:03:01;;;;;;;;;;;12.90;95.70;;;;;;4318885;33;43570;-79
2021/10/04 07:05:29;;;;;;;;;;;12.90;95.70;;;;;;4332246;33;41803;-80
2021/10/04 07:07:59;;;;;;;;;;;12.90;95.70;;;;;;4319174;33;43069;-80
2021/10/04 07:10:26;;;;;;;;;;;12.90;95.70;;;;;;4332058;33;42147;-79
2021/10/04 07:12:56;;;;;;;;;;;12.90;95.60;;;;;;4332183;33;45713;-79
2021/10/04 07:15:26;;;;;;;;;;;12.90;95.70;;;;;;4331234;33;44222;-79
2021/10/04 07:17:56;;;;;;;;;;;12.90;95.70;;;;;;4331345;33;43897;-79
2021/10/04 07:20:26;;;;;;;;;;;12.90;95.70;;;;;;4330666;33;44969;-80
2021/10/04 07:22:53;;;;;;;;;;;12.90;95.70;;;;;;4332268;33;43919;-79
2021/10/04 07:25:20;;;;;;;;;;;12.80;95.70;;;;;;4319292;33;43331;-79
2021/10/04 07:27:50;;;;;;;;;;;12.80;95.70;;;;;;4332258;33;43757;-80
2021/10/04 07:30:20;;;;;;;;;;;12.90;95.70;;;;;;4332792;33;19998;-79
2021/10/04 07:32:50;;;;;;;;;;;12.80;95.70;;;;;;4331097;33;44266;-80
2021/10/04 07:35:22;;;;;;;;;;;12.80;95.70;;;;;;4332080;33;45879;-80
2021/10/04 07:37:53;;;;;;;;;;;12.90;95.70;;;;;;4332019;33;42914;-80
2021/10/04 07:40:23;;;;;;;;;;;12.80;95.70;;;;;;4331990;33;43812;-79
2021/10/04 07:42:52;;;;;;;;;;;12.90;95.70;;;;;;4330839;33;44650;-80
2021/10/04 07:45:23;;;;;;;;;;;12.80;95.70;;;;;;4318258;33;44693;-80
2021/10/04 07:47:53;;;;;;;;;;;12.80;95.70;;;;;;4331987;33;45709;-80
2021/10/04 07:50:20;;;;;;;;;;;12.80;95.70;;;;;;4331648;33;43946;-79
2021/10/04 07:52:47;;;;;;;;;;;12.80;95.70;;;;;;4330728;33;43486;-79
2021/10/04 07:55:22;;;;;;;;;;;12.80;95.70;;;;;;4331376;33;43913;-79
2021/10/04 07:57:49;;;;;;;;;;;12.80;95.70;;;;;;4331826;33;45703;-79
2021/10/04 08:00:23;;;;;;;;;;;12.90;95.70;;;;;;4331426;33;45841;-79
2021/10/04 08:02:55;;;;;;;;;;;12.90;95.70;;;;;;4317954;33;42989;-79
2021/10/04 08:05:25;;;;;;;;;;;12.80;95.70;;;;;;4318510;33;44169;-79
2021/10/04 08:07:52;;;;;;;;;;;12.80;95.80;;;;;;4331506;33;42473;-79
2021/10/04 08:10:19;;;;;;;;;;;12.80;95.80;;;;;;4318055;33;43306;-79
2021/10/04 08:12:49;;;;;;;;;;;12.80;95.80;;;;;;4318419;33;43027;-79
2021/10/04 08:15:16;;;;;;;;;;;12.80;95.80;;;;;;4318381;33;45070;-79
2021/10/04 08:17:48;;;;;;;;;;;12.80;95.80;;;;;;4318189;33;45969;-80
2021/10/04 08:20:24;;;;;;;;;;;12.90;95.80;;;;;;4330557;33;43874;-78
2021/10/04 08:22:52;;;;;;;;;;;12.80;95.80;;;;;;4331338;33;43195;-79
2021/10/04 08:25:24;;;;;;;;;;;12.80;96.10;;;;;;4318358;33;44767;-79
2021/10/04 08:27:57;;;;;;;;;;;12.80;95.80;;;;;;4330400;33;46002;-79
2021/10/04 08:30:31;;;;;;;;;;;12.80;95.80;;;;;;4331396;33;44816;-79
2021/10/04 08:33:04;;;;;;;;;;;12.80;95.80;;;;;;4330234;33;43694;-79
2021/10/04 08:35:32;;;;;;;;;;;12.80;95.80;;;;;;4330639;33;43679;-80
2021/10/04 08:38:02;;;;;;;;;;;12.80;95.90;;;;;;4330340;33;45518;-79
2021/10/04 08:40:29;;;;;;;;;;;12.80;95.90;;;;;;4331185;33;43645;-80
2021/10/04 08:43:01;;;;;;;;;;;12.80;95.90;;;;;;4330649;33;42829;-80
2021/10/04 08:45:35;;;;;;;;;;;12.80;96.00;;;;;;4330671;33;42986;-79
2021/10/04 08:48:05;;;;;;;;;;;12.90;96.00;;;;;;4317402;33;43200;-79
2021/10/04 08:50:43;;;;;;;;;;;12.90;96.00;;;;;;4329721;33;43906;-79
2021/10/04 08:53:10;;;;;;;;;;;12.90;96.00;;;;;;4330015;33;43106;-80
2021/10/04 08:55:37;;;;;;;;;;;12.90;96.10;;;;;;4317899;33;44309;-79
2021/10/04 08:58:12;;;;;;;;;;;12.90;96.10;;;;;;4317721;33;43221;-79
2021/10/04 09:00:42;;;;;;;;;;;12.90;96.10;;;;;;4329763;33;42657;-79
2021/10/04 09:03:12;;;;;;;;;;;13.00;96.10;;;;;;4329541;33;43786;-79
2021/10/04 09:05:44;;;;;;;;;;;13.00;96.10;;;;;;4331042;33;44168;-79
2021/10/04 09:08:15;;;;;;;;;;;13.00;96.10;;;;;;4329902;33;45677;-79
2021/10/04 09:10:43;;;;;;;;;;;13.00;96.10;;;;;;4329354;33;43046;-79
2021/10/04 09:13:19;;;;;;;;;;;13.00;96.10;;;;;;4329832;33;44989;-80
2021/10/04 09:15:48;;;;;;;;;;;13.00;96.10;;;;;;4329946;33;43828;-80
2021/10/04 09:18:24;;;;;;;;;;;13.10;96.20;;;;;;4330849;33;43151;-78
2021/10/04 09:20:59;;;;;;;;;;;13.10;96.20;;;;;;4330337;33;43018;-79
2021/10/04 09:23:26;;;;;;;;;;;13.10;96.20;;;;;;4317566;33;45742;-80
2021/10/04 09:25:53;;;;;;;;;;;13.20;96.10;;;;;;4329329;33;45743;-79
2021/10/04 09:28:32;;;;;;;;;;;13.20;96.10;;;;;;4330443;33;45226;-80
2021/10/04 09:31:20;;;;;;;;;;;13.20;96.10;;;;;;4330630;33;45708;-80
2021/10/04 09:34:07;;;;;;;;;;;13.30;96.10;;;;;;4331175;33;20451;-79
2021/10/04 09:36:39;;;;;;;;;;;13.30;96.10;;;;;;4330288;33;45603;-78
2021/10/04 09:39:08;;;;;;;;;;;13.40;96.10;;;;;;4329495;33;46172;-79
2021/10/04 09:41:38;;;;;;;;;;;13.50;96.10;;;;;;4329961;33;46002;-80
2021/10/04 09:44:06;;;;;;;;;;;13.50;96.00;;;;;;4330409;33;42875;-80
2021/10/04 09:46:38;;;;;;;;;;;13.60;96.10;;;;;;4329931;33;44022;-79
2021/10/04 09:49:06;;;;;;;;;;;13.60;96.00;;;;;;4317044;33;42186;-80
2021/10/04 09:51:33;;;;;;;;;;;13.70;95.90;;;;;;4330010;33;42920;-80
2021/10/04 09:54:10;;;;;;;;;;;13.70;95.90;;;;;;4317284;33;43591;-80
2021/10/04 09:56:38;;;;;;;;;;;13.70;95.80;;;;;;4317270;33;44250;-79
2021/10/04 09:59:10;;;;;;;;;;;13.80;95.80;;;;;;4330343;33;43183;-79
2021/10/04 10:01:39;;;;;;;;;;;13.80;95.80;;;;;;4330257;33;43320;-79
2021/10/04 10:04:09;;;;;;;;;;;13.90;95.80;;;;;;4330858;33;20038;-79
2021/10/04 10:06:36;;;;;;;;;;;14.00;95.70;;;;;;4329307;33;42139;-80
2021/10/04 10:09:08;;;;;;;;;;;14.00;95.70;;;;;;4329280;33;43256;-80
2021/10/04 10:11:36;;;;;;;;;;;14.00;95.70;;;;;;4329534;33;43773;-79
2021/10/04 10:14:03;;;;;;;;;;;14.10;95.60;;;;;;4328909;33;44298;-80
2021/10/04 10:16:38;;;;;;;;;;;14.10;95.30;;;;;;4329478;33;43705;-79
2021/10/04 10:19:16;;;;;;;;;;;14.20;95.40;;;;;;4330362;33;44192;-80
2021/10/04 10:21:50;;;;;;;;;;;14.20;95.40;;;;;;4330187;33;45702;-79
2021/10/04 10:24:29;;;;;;;;;;;14.30;95.40;;;;;;4317102;33;44346;-80
2021/10/04 10:27:03;;;;;;;;;;;14.30;95.20;;;;;;4330037;33;42156;-79
2021/10/04 10:29:35;;;;;;;;;;;14.40;95.10;;;;;;4330070;33;43820;-80
2021/10/04 10:32:07;;;;;;;;;;;14.40;95.00;;;;;;4331310;33;42091;-80
2021/10/04 10:34:35;;;;;;;;;;;14.50;94.80;;;;;;4333422;33;20518;-80
2021/10/04 10:37:06;;;;;;;;;;;14.50;94.90;;;;;;4332885;33;43606;-80
2021/10/04 10:39:37;;;;;;;;;;;14.50;94.80;;;;;;4333059;33;43869;-80
2021/10/04 10:42:10;;;;;;;;;;;14.60;94.80;;;;;;4319910;33;44745;-80
2021/10/04 10:44:56;;;;;;;;;;;14.60;94.70;;;;;;4332825;33;44182;-79
2021/10/04 10:47:39;;;;;;;;;;;14.70;94.50;;;;;;4332858;33;44184;-80
2021/10/04 10:50:07;;;;;;;;;;;14.80;94.40;;;;;;4332303;33;43173;-80
2021/10/04 10:52:40;;;;;;;;;;;14.80;94.30;;;;;;4332229;33;43609;-79
2021/10/04 10:55:30;;;;;;;;;;;14.90;94.40;;;;;;4332223;33;43060;-80
2021/10/04 10:58:00;;;;;;;;;;;14.90;94.40;;;;;;4332545;33;42540;-80
2021/10/04 11:00:40;;;;;;;;;;;15.00;93.90;;;;;;4330998;33;45726;-80
2021/10/04 11:03:13;;;;;;;;;;;15.00;94.00;;;;;;4331043;33;44191;-79
2021/10/04 11:05:54;;;;;;;;;;;15.10;94.00;;;;;;4320442;33;20407;-79
2021/10/04 11:08:41;;;;;;;;;;;15.10;93.70;;;;;;4332674;33;42966;-79
2021/10/04 11:11:18;;;;;;;;;;;15.10;93.20;;;;;;4318693;33;42705;-80
2021/10/04 11:14:09;;;;;;;;;;;15.10;93.50;;;;;;4331932;33;42745;-80
2021/10/04 11:16:37;;;;;;;;;;;15.20;93.60;;;;;;4323105;33;44043;-80
2021/10/04 11:19:07;;;;;;;;;;;15.20;93.20;;;;;;4331946;33;42946;-79
2021/10/04 11:21:49;;;;;;;;;;;15.20;93.00;;;;;;4332161;33;43035;-79
2021/10/04 11:24:19;;;;;;;;;;;15.30;93.10;;;;;;4332221;33;45930;-80
2021/10/04 11:26:49;;;;;;;;;;;15.30;93.10;;;;;;4330909;33;43668;-79
2021/10/04 11:29:24;;;;;;;;;;;15.40;93.10;;;;;;4331052;33;45284;-81
2021/10/04 11:31:51;;;;;;;;;;;15.40;93.00;;;;;;4332038;33;44688;-80
2021/10/04 11:34:20;;;;;;;;;;;15.40;92.80;;;;;;4331108;33;45754;-79
2021/10/04 11:36:49;;;;;;;;;;;15.50;92.80;;;;;;4318649;33;43744;-79
2021/10/04 11:39:34;;;;;;;;;;;15.50;92.90;;;;;;4331692;33;44201;-80
2021/10/04 11:42:09;;;;;;;;;;;15.60;92.80;;;;;;4318690;33;42430;-79
2021/10/04 11:44:41;;;;;;;;;;;15.60;92.60;;;;;;4318412;33;46018;-80
2021/10/04 11:47:09;;;;;;;;;;;15.60;92.30;;;;;;4331920;33;42513;-79
2021/10/04 11:49:44;;;;;;;;;;;15.60;92.50;;;;;;4331863;33;44121;-81
2021/10/04 11:52:16;;;;;;;;;;;15.70;92.40;;;;;;4331422;33;42893;-79
2021/10/04 11:54:44;;;;;;;;;;;15.70;92.20;;;;;;4332125;33;44835;-80
2021/10/04 11:57:31;;;;;;;;;;;15.70;92.20;;;;;;4330757;33;44775;-80
2021/10/04 12:00:07;;;;;;;;;;;15.70;92.40;;;;;;4331830;33;43208;-79
2021/10/04 12:02:39;;;;;;;;;;;15.80;92.00;;;;;;4331092;33;42466;-80
2021/10/04 12:05:32;;;;;;;;;;;15.80;92.40;;;;;;4330656;33;43941;-80
2021/10/04 12:08:06;;;;;;;;;;;15.80;91.80;;;;;;4319561;33;20001;-80
2021/10/04 12:10:39;;;;;;;;;;;15.80;92.10;;;;;;4330710;33;42995;-79
2021/10/04 12:13:10;;;;;;;;;;;15.80;92.50;;;;;;4330568;33;44732;-79
2021/10/04 12:15:41;;;;;;;;;;;15.90;92.10;;;;;;4330681;33;43243;-80
2021/10/04 12:18:15;;;;;;;;;;;15.90;92.20;;;;;;4331589;33;44184;-80
2021/10/04 12:20:51;;;;;;;;;;;15.90;92.10;;;;;;4331530;33;44079;-80
2021/10/04 12:23:22;;;;;;;;;;;15.90;92.20;;;;;;4330657;33;44207;-79
2021/10/04 12:25:50;;;;;;;;;;;16.00;91.90;;;;;;4331134;33;43272;-80
2021/10/04 12:28:21;;;;;;;;;;;16.00;91.90;;;;;;4329799;33;42892;-79
2021/10/04 12:30:57;;;;;;;;;;;16.10;92.10;;;;;;4330878;33;44032;-79
2021/10/04 12:33:45;;;;;;;;;;;16.10;92.10;;;;;;4330255;33;42669;-79
2021/10/04 12:36:15;;;;;;;;;;;16.10;91.60;;;;;;4331291;33;42907;-80
2021/10/04 12:38:58;;;;;;;;;;;16.20;91.90;;;;;;4332122;33;20001;-79
2021/10/04 12:41:45;;;;;;;;;;;16.20;91.80;;;;;;4317473;33;44814;-79
2021/10/04 12:44:17;;;;;;;;;;;16.20;91.70;;;;;;4331261;33;43879;-79
2021/10/04 12:47:03;;;;;;;;;;;16.30;91.50;;;;;;4330966;33;42850;-80
2021/10/04 12:49:33;;;;;;;;;;;16.30;91.50;;;;;;4331120;33;45769;-80
2021/10/04 12:52:06;;;;;;;;;;;16.40;91.30;;;;;;4329444;33;42709;-80
2021/10/04 12:54:38;;;;;;;;;;;16.40;91.50;;;;;;4329681;33;44790;-79
2021/10/04 12:57:05;;;;;;;;;;;16.40;91.40;;;;;;4331133;33;45166;-80
2021/10/04 12:59:38;;;;;;;;;;;16.50;91.20;;;;;;4317722;33;41850;-79
2021/10/04 13:02:08;;;;;;;;;;;16.50;91.30;;;;;;4329526;33;44191;-79
2021/10/04 13:04:37;;;;;;;;;;;16.50;90.90;;;;;;4329775;33;44296;-79
2021/10/04 13:07:08;;;;;;;;;;;16.50;91.00;;;;;;4330963;33;43920;-80
2021/10/04 13:09:43;;;;;;;;;;;16.50;91.10;;;;;;4330814;33;20113;-79
2021/10/04 13:12:10;;;;;;;;;;;16.60;91.10;;;;;;4330836;33;43781;-80
2021/10/04 13:14:43;;;;;;;;;;;16.60;90.90;;;;;;4330745;33;44160;-79
2021/10/04 13:17:13;;;;;;;;;;;16.60;91.00;;;;;;4329731;33;43648;-79
2021/10/04 13:19:42;;;;;;;;;;;16.60;90.50;;;;;;4330876;33;44831;-80
2021/10/04 13:22:09;;;;;;;;;;;16.60;90.80;;;;;;4329847;33;45082;-80
2021/10/04 13:24:44;;;;;;;;;;;16.60;90.70;;;;;;4330620;33;44311;-80
2021/10/04 13:27:19;;;;;;;;;;;16.60;90.90;;;;;;4329502;33;45196;-80
2021/10/04 13:29:47;;;;;;;;;;;16.60;90.60;;;;;;4330177;33;42857;-80
2021/10/04 13:32:17;;;;;;;;;;;16.70;90.70;;;;;;4317514;33;43085;-81
2021/10/04 13:34:53;;;;;;;;;;;16.70;90.80;;;;;;4317781;33;44339;-80
2021/10/04 13:37:23;;;;;;;;;;;16.70;90.70;;;;;;4329566;33;43608;-80
2021/10/04 13:39:56;;;;;;;;;;;16.80;90.80;;;;;;4330023;33;19997;-79
2021/10/04 13:42:26;;;;;;;;;;;16.80;90.50;;;;;;4329381;33;43890;-80
2021/10/04 13:44:56;;;;;;;;;;;16.80;90.30;;;;;;4329544;33;45864;-79
2021/10/04 13:47:23;;;;;;;;;;;16.80;90.30;;;;;;4330387;33;42340;-79
2021/10/04 13:49:56;;;;;;;;;;;16.90;90.50;;;;;;4328957;33;43847;-80
2021/10/04 13:52:23;;;;;;;;;;;16.90;90.30;;;;;;4330615;33;43019;-80
2021/10/04 13:54:56;;;;;;;;;;;16.90;90.30;;;;;;4329330;33;43474;-80
2021/10/04 13:57:23;;;;;;;;;;;17.00;90.20;;;;;;4316756;33;44568;-80
2021/10/04 13:59:55;;;;;;;;;;;17.00;90.00;;;;;;4329399;33;43910;-80
2021/10/04 14:02:28;;;;;;;;;;;17.00;90.10;;;;;;4329075;33;45869;-80
2021/10/04 14:05:01;;;;;;;;;;;17.00;90.00;;;;;;4329225;33;44322;-80
2021/10/04 14:07:33;;;;;;;;;;;17.00;89.50;;;;;;4331401;33;44622;-80
2021/10/04 14:10:02;;;;;;;;;;;17.00;89.40;;;;;;4321420;33;20038;-80
2021/10/04 14:12:32;;;;;;;;;;;17.00;90.00;;;;;;4333095;33;43698;-79
2021/10/04 14:15:03;;;;;;;;;;;17.00;90.00;;;;;;4332209;33;42134;-79
2021/10/04 14:17:32;;;;;;;;;;;17.00;88.30;;;;;;4331642;33;44260;-80
2021/10/04 14:20:05;;;;;;;;;;;17.00;88.00;;;;;;4331990;33;44823;-79
2021/10/04 14:22:35;;;;;;;;;;;17.00;88.90;;;;;;4332184;33;44809;-80
2021/10/04 14:25:07;;;;;;;;;;;17.00;88.60;;;;;;4331467;33;43997;-80
2021/10/04 14:27:40;;;;;;;;;;;17.10;89.40;;;;;;4319985;33;44835;-80
2021/10/04 14:30:11;;;;;;;;;;;17.10;89.00;;;;;;4332058;33;44333;-79
2021/10/04 14:33:01;;;;;;;;;;;17.20;88.70;;;;;;4332340;33;45890;-79
2021/10/04 14:35:32;;;;;;;;;;;17.20;88.50;;;;;;4331740;33;43197;-79
2021/10/04 14:38:02;;;;;;;;;;;17.20;89.20;;;;;;4331736;33;43935;-80